createdAt,value
2023-01-01T00:01:23.925Z,5.53
2023-01-01T00:03:51.267Z,6.35
2023-01-01T00:06:17.785Z,6.00
2023-01-01T00:08:44.296Z,6.28
2023-01-01T00:11:11.425Z,7.07
2023-01-01T00:13:38.672Z,5.72
2023-01-01T00:16:09.076Z,6.50
2023-01-01T00:18:35.561Z,7.05
2023-01-01T00:21:03.064Z,7.05
2023-01-01T00:23:29.542Z,6.13
2023-01-01T00:25:55.956Z,6.95
2023-01-01T00:28:22.432Z,6.40
2023-01-01T00:30:48.818Z,6.25
2023-01-01T00:33:15.234Z,6.50
2023-01-01T00:35:41.702Z,6.30
2023-01-01T00:38:08.157Z,6.63
2023-01-01T00:40:34.727Z,6.65
2023-01-01T00:43:01.122Z,6.55
2023-01-01T00:45:27.777Z,6.65
2023-01-01T00:47:54.377Z,6.85
2023-01-01T00:50:21.703Z,6.70
2023-01-01T00:52:49.143Z,7.32
2023-01-01T00:55:15.909Z,7.20
2023-01-01T00:57:42.318Z,7.32
2023-01-01T01:00:09.281Z,6.50
2023-01-01T01:02:35.940Z,6.70
2023-01-01T01:05:04.778Z,6.40
2023-01-01T01:07:36.397Z,6.88
2023-01-01T01:10:02.935Z,6.35
2023-01-01T01:12:29.450Z,6.32
2023-01-01T01:14:55.877Z,5.75
2023-01-01T01:17:22.247Z,6.47
2023-01-01T01:19:48.672Z,6.15
2023-01-01T01:22:15.109Z,5.82
2023-01-01T01:24:41.501Z,5.80
2023-01-01T01:27:07.865Z,5.97
2023-01-01T01:29:34.299Z,5.63
2023-01-01T01:32:00.749Z,5.75
2023-01-01T01:34:28.309Z,5.35
2023-01-01T01:36:55.277Z,5.78
2023-01-01T01:39:21.707Z,5.78
2023-01-01T01:41:48.233Z,5.32
2023-01-01T01:44:33.752Z,5.63
2023-01-01T01:47:00.636Z,5.18
2023-01-01T01:49:29.226Z,4.85
2023-01-01T01:51:55.864Z,4.88
2023-01-01T01:54:24.058Z,4.30
2023-01-01T01:57:03.698Z,4.55
2023-01-01T01:59:31.912Z,4.80
2023-01-01T02:01:59.025Z,3.67
2023-01-01T02:04:25.717Z,4.35
2023-01-01T02:06:52.998Z,4.10
2023-01-01T02:09:19.463Z,3.65
2023-01-01T02:11:45.847Z,3.90
2023-01-01T02:14:12.561Z,3.78
2023-01-01T02:17:05.023Z,3.97
2023-01-01T02:19:44.948Z,3.45
2023-01-01T02:22:17.505Z,3.38
2023-01-01T02:24:59.236Z,3.20
2023-01-01T02:27:44.442Z,3.30
2023-01-01T02:30:11.967Z,3.10
2023-01-01T02:32:38.357Z,2.90
2023-01-01T02:35:25.502Z,2.58
2023-01-01T02:37:54.637Z,2.30
2023-01-01T02:40:23.303Z,2.72
2023-01-01T02:42:50.563Z,2.30
2023-01-01T02:45:17.023Z,2.60
2023-01-01T02:47:43.445Z,2.20
2023-01-01T02:50:23.968Z,2.38
2023-01-01T02:53:01.198Z,2.08
2023-01-01T02:55:46.003Z,2.30
2023-01-01T02:58:35.560Z,2.42
2023-01-01T03:01:08.442Z,2.20
2023-01-01T03:03:41.329Z,1.90
2023-01-01T03:06:23.082Z,1.90
2023-01-01T03:08:53.928Z,1.70
2023-01-01T03:11:22.505Z,1.83
2023-01-01T03:13:58.809Z,1.77
2023-01-01T03:16:28.030Z,2.00
2023-01-01T03:19:11.015Z,1.77
2023-01-01T03:21:43.835Z,1.65
2023-01-01T03:24:18.857Z,1.73
2023-01-01T03:26:46.626Z,2.08
2023-01-01T03:29:13.232Z,1.65
2023-01-01T03:31:42.059Z,1.63
2023-01-01T03:34:13.278Z,1.73
2023-01-01T03:36:41.384Z,1.50
2023-01-01T03:39:25.039Z,2.00
2023-01-01T03:41:54.198Z,1.50
2023-01-01T03:44:27.110Z,1.45
2023-01-01T03:46:54.029Z,1.52
2023-01-01T03:49:20.989Z,1.50
2023-01-01T03:51:47.421Z,1.70
2023-01-01T03:54:20.622Z,1.33
2023-01-01T03:56:51.499Z,1.48
2023-01-01T03:59:21.535Z,1.30
2023-01-01T04:01:50.078Z,1.30
2023-01-01T04:04:17.324Z,1.30
2023-01-01T04:06:43.877Z,1.30
2023-01-01T04:09:12.867Z,1.08
2023-01-01T04:11:59.987Z,1.13
2023-01-01T04:14:28.287Z,1.27
2023-01-01T04:16:55.701Z,1.30
2023-01-01T04:19:22.178Z,1.27
2023-01-01T04:21:48.551Z,1.50
2023-01-01T04:24:15.267Z,1.20
2023-01-01T04:26:41.739Z,1.27
2023-01-01T04:29:08.166Z,1.27
2023-01-01T04:31:35.196Z,1.40
2023-01-01T04:34:01.749Z,1.30
2023-01-01T04:36:28.190Z,1.15
2023-01-01T04:38:54.730Z,1.27
2023-01-01T04:41:21.127Z,1.40
2023-01-01T04:43:50.580Z,1.40
2023-01-01T04:46:17.729Z,1.30
2023-01-01T04:48:44.435Z,1.00
2023-01-01T04:51:11.772Z,1.15
2023-01-01T04:53:38.827Z,1.55
2023-01-01T04:56:05.910Z,1.55
2023-01-01T04:58:32.935Z,1.10
2023-01-01T05:00:59.384Z,1.40
2023-01-01T05:03:25.880Z,1.20
2023-01-01T05:06:01.362Z,1.38
2023-01-01T05:08:28.811Z,1.08
2023-01-01T05:10:59.709Z,1.20
2023-01-01T05:13:26.071Z,1.20
2023-01-01T05:15:52.469Z,1.30
2023-01-01T05:18:18.922Z,1.20
2023-01-01T05:20:45.353Z,1.10
2023-01-01T05:23:11.785Z,1.13
2023-01-01T05:25:38.327Z,1.10
2023-01-01T05:28:04.762Z,1.10
2023-01-01T05:30:31.162Z,1.20
2023-01-01T05:32:57.562Z,1.10
2023-01-01T05:35:26.574Z,1.20
2023-01-01T05:37:53.345Z,1.30
2023-01-01T05:40:19.863Z,0.80
2023-01-01T05:42:47.219Z,1.33
2023-01-01T05:45:13.868Z,1.38
2023-01-01T05:47:40.321Z,1.20
2023-01-01T05:52:32.467Z,1.00
2023-01-01T05:54:59.836Z,1.20
2023-01-01T05:57:26.247Z,1.23
2023-01-01T05:59:52.690Z,1.30
2023-01-01T06:02:19.169Z,1.33
2023-01-01T06:04:45.855Z,1.40
2023-01-01T06:07:12.331Z,1.23
2023-01-01T06:09:38.712Z,1.15
2023-01-01T06:12:05.500Z,1.40
2023-01-01T06:14:31.942Z,1.10
2023-01-01T06:16:58.380Z,1.05
2023-01-01T06:19:24.789Z,1.08
2023-01-01T06:21:51.324Z,1.20
2023-01-01T06:24:17.743Z,1.10
2023-01-01T06:26:44.206Z,1.30
2023-01-01T06:29:10.609Z,1.10
2023-01-01T06:31:40.672Z,1.02
2023-01-01T06:34:07.456Z,1.13
2023-01-01T06:36:33.922Z,1.20
2023-01-01T06:39:00.485Z,1.00
2023-01-01T06:41:28.082Z,1.20
2023-01-01T06:43:55.205Z,1.55
2023-01-01T06:46:21.720Z,0.90
2023-01-01T06:48:49.411Z,1.20
2023-01-01T06:51:17.174Z,1.10
2023-01-01T06:53:43.864Z,1.50
2023-01-01T06:56:10.544Z,1.10
2023-01-01T06:58:36.998Z,1.00
2023-01-01T07:01:08.763Z,1.30
2023-01-01T07:03:35.739Z,1.20
2023-01-01T07:06:02.256Z,1.30
2023-01-01T07:08:28.759Z,1.42
2023-01-01T07:10:57.487Z,1.25
2023-01-01T07:13:24.873Z,1.13
2023-01-01T07:15:52.303Z,1.15
2023-01-01T07:18:19.539Z,1.23
2023-01-01T07:20:53.437Z,1.02
2023-01-01T07:23:19.867Z,1.10
2023-01-01T07:25:48.598Z,0.80
2023-01-01T07:28:14.990Z,1.10
2023-01-01T07:30:41.571Z,1.08
2023-01-01T07:33:15.392Z,1.30
2023-01-01T07:35:41.983Z,0.95
2023-01-01T07:38:08.362Z,1.15
2023-01-01T07:40:34.763Z,1.13
2023-01-01T07:43:01.231Z,0.88
2023-01-01T07:45:28.009Z,1.00
2023-01-01T07:47:55.279Z,1.30
2023-01-01T07:50:22.361Z,1.17
2023-01-01T07:52:48.778Z,1.20
2023-01-01T07:55:16.431Z,1.00
2023-01-01T07:57:43.890Z,1.30
2023-01-01T08:00:11.634Z,0.90
2023-01-01T08:02:38.251Z,1.10
2023-01-01T08:05:04.979Z,1.10
2023-01-01T08:07:31.429Z,1.02
2023-01-01T08:09:57.960Z,1.38
2023-01-01T08:12:24.814Z,1.30
2023-01-01T08:14:51.260Z,1.30
2023-01-01T08:17:17.743Z,1.40
2023-01-01T08:19:45.002Z,1.38
2023-01-01T08:22:11.443Z,1.30
2023-01-01T08:24:37.806Z,1.13
2023-01-01T08:27:04.212Z,1.30
2023-01-01T08:29:30.652Z,1.40
2023-01-01T08:31:57.094Z,1.25
2023-01-01T08:34:23.489Z,1.38
2023-01-01T08:36:49.961Z,1.40
2023-01-01T08:39:16.358Z,1.45
2023-01-01T08:41:42.814Z,1.20
2023-01-01T08:44:09.202Z,1.25
2023-01-01T08:46:35.625Z,1.35
2023-01-01T08:49:16.771Z,1.30
2023-01-01T08:51:43.250Z,1.20
2023-01-01T08:54:09.704Z,1.20
2023-01-01T08:56:37.674Z,1.33
2023-01-01T08:59:04.733Z,1.30
2023-01-01T09:01:31.509Z,1.10
2023-01-01T09:03:58.326Z,1.27
2023-01-01T09:06:24.844Z,1.38
2023-01-01T09:08:51.606Z,1.20
2023-01-01T09:11:21.703Z,1.33
2023-01-01T09:13:48.176Z,1.33
2023-01-01T09:16:14.622Z,1.30
2023-01-01T09:18:41.034Z,1.40
2023-01-01T09:21:07.538Z,1.45
2023-01-01T09:23:33.931Z,1.25
2023-01-01T09:26:04.880Z,1.25
2023-01-01T09:28:31.312Z,1.23
2023-01-01T09:30:57.689Z,1.25
2023-01-01T09:33:24.108Z,1.23
2023-01-01T09:35:50.544Z,1.30
2023-01-01T09:38:16.965Z,1.17
2023-01-01T09:41:01.879Z,1.10
2023-01-01T09:44:06.915Z,1.15
2023-01-01T09:46:33.535Z,1.38
2023-01-01T09:49:02.462Z,1.33
2023-01-01T09:51:32.513Z,1.05
2023-01-01T09:54:06.606Z,1.20
2023-01-01T09:56:35.001Z,1.00
2023-01-01T09:59:01.538Z,1.23
2023-01-01T10:01:47.725Z,1.40
2023-01-01T10:04:32.850Z,1.08
2023-01-01T10:07:08.583Z,1.02
2023-01-01T10:09:41.801Z,1.38
2023-01-01T10:12:12.950Z,1.08
2023-01-01T10:14:41.512Z,0.93
2023-01-01T10:17:23.116Z,1.10
2023-01-01T10:19:53.780Z,1.03
2023-01-01T10:22:22.607Z,1.20
2023-01-01T10:25:00.983Z,1.33
2023-01-01T10:27:41.400Z,1.02
2023-01-01T10:30:15.947Z,1.10
2023-01-01T10:32:44.739Z,0.90
2023-01-01T10:35:15.758Z,1.13
2023-01-01T10:37:42.531Z,1.30
2023-01-01T10:40:16.804Z,0.90
2023-01-01T10:42:45.380Z,1.00
2023-01-01T10:45:14.411Z,1.10
2023-01-01T10:48:00.734Z,1.20
2023-01-01T10:50:40.981Z,1.10
2023-01-01T10:53:18.907Z,1.10
2023-01-01T10:56:01.543Z,1.27
2023-01-01T10:58:40.414Z,1.20
2023-01-01T11:01:12.227Z,1.23
2023-01-01T11:03:56.256Z,1.40
2023-01-01T11:06:28.250Z,1.40
2023-01-01T11:08:59.575Z,1.50
2023-01-01T11:11:29.010Z,1.17
2023-01-01T11:13:57.728Z,1.40
2023-01-01T11:16:24.769Z,1.33
2023-01-01T11:18:51.383Z,1.30
2023-01-01T11:21:22.112Z,1.40
2023-01-01T11:23:50.081Z,1.50
2023-01-01T11:26:20.775Z,1.48
2023-01-01T11:29:08.643Z,1.63
2023-01-01T11:31:39.164Z,1.52
2023-01-01T11:34:16.811Z,1.50
2023-01-01T11:36:43.271Z,1.48
2023-01-01T11:39:12.682Z,1.50
2023-01-01T11:41:46.997Z,1.70
2023-01-01T11:44:21.953Z,1.40
2023-01-01T11:46:48.417Z,1.52
2023-01-01T11:49:19.257Z,1.40
2023-01-01T11:51:45.702Z,1.23
2023-01-01T11:54:23.022Z,1.58
2023-01-01T11:56:50.684Z,1.45
2023-01-01T11:59:18.572Z,1.77
2023-01-01T12:01:46.929Z,1.60
2023-01-01T12:04:19.970Z,1.70
2023-01-01T12:06:52.453Z,1.38
2023-01-01T12:09:19.138Z,1.55
2023-01-01T12:11:51.779Z,1.52
2023-01-01T12:14:21.231Z,1.33
2023-01-01T12:16:55.028Z,1.77
2023-01-01T12:19:27.688Z,1.35
2023-01-01T12:21:57.527Z,1.70
2023-01-01T12:24:25.583Z,1.90
2023-01-01T12:27:15.710Z,1.30
2023-01-01T12:29:42.085Z,1.50
2023-01-01T12:32:20.390Z,1.50
2023-01-01T12:35:02.164Z,1.50
2023-01-01T12:37:31.549Z,1.80
2023-01-01T12:40:15.048Z,1.70
2023-01-01T12:43:02.798Z,1.77
2023-01-01T12:45:32.235Z,1.60
2023-01-01T12:48:01.814Z,1.70
2023-01-01T12:50:33.951Z,1.55
2023-01-01T12:53:10.939Z,1.50
2023-01-01T12:55:37.463Z,1.35
2023-01-01T12:58:24.290Z,1.35
2023-01-01T13:00:56.570Z,1.45
2023-01-01T13:05:54.763Z,1.67
2023-01-01T13:08:21.168Z,1.60
2023-01-01T13:10:49.013Z,1.60
2023-01-01T13:13:15.565Z,1.50
2023-01-01T13:15:43.193Z,1.50
2023-01-01T13:18:15.982Z,1.70
2023-01-01T13:20:42.374Z,1.65
2023-01-01T13:23:29.108Z,1.50
2023-01-01T13:26:14.216Z,1.58
2023-01-01T13:28:40.658Z,1.52
2023-01-01T13:31:07.145Z,1.40
2023-01-01T13:33:34.572Z,1.77
2023-01-01T13:36:13.212Z,1.60
2023-01-01T13:38:58.571Z,1.50
2023-01-01T13:41:31.409Z,1.60
2023-01-01T13:44:00.935Z,1.73
2023-01-01T13:46:51.754Z,1.60
2023-01-01T13:49:38.716Z,1.38
2023-01-01T13:52:20.326Z,1.50
2023-01-01T13:54:49.752Z,1.30
2023-01-01T13:57:19.253Z,1.65
2023-01-01T14:00:12.076Z,2.10
2023-01-01T14:02:45.222Z,2.97
2023-01-01T14:05:24.967Z,3.22
2023-01-01T14:07:53.233Z,2.83
2023-01-01T14:10:30.324Z,3.10
2023-01-01T14:13:10.149Z,3.20
2023-01-01T14:15:37.603Z,3.60
2023-01-01T14:18:10.377Z,3.35
2023-01-01T14:20:41.116Z,3.40
2023-01-01T14:23:10.616Z,3.17
2023-01-01T14:25:37.201Z,4.00
2023-01-01T14:28:04.567Z,3.90
2023-01-01T14:30:32.368Z,3.90
2023-01-01T14:32:59.937Z,4.22
2023-01-01T14:35:26.727Z,4.30
2023-01-01T14:37:53.539Z,4.40
2023-01-01T14:40:28.274Z,5.53
2023-01-01T14:42:57.175Z,4.65
2023-01-01T14:45:24.414Z,4.85
2023-01-01T14:47:52.669Z,4.95
2023-01-01T14:50:21.842Z,5.43
2023-01-01T14:52:51.915Z,5.20
2023-01-01T14:55:19.126Z,5.70
2023-01-01T14:57:51.330Z,5.38
2023-01-01T15:00:25.385Z,5.35
2023-01-01T15:02:52.436Z,5.75
2023-01-01T15:05:34.898Z,5.43
2023-01-01T15:08:02.684Z,5.88
2023-01-01T15:10:30.141Z,6.10
2023-01-01T15:12:57.344Z,5.78
2023-01-01T15:15:39.371Z,5.45
2023-01-01T15:18:06.193Z,6.38
2023-01-01T15:20:33.190Z,6.38
2023-01-01T15:23:03.527Z,5.82
2023-01-01T15:25:36.414Z,5.97
2023-01-01T15:28:03.149Z,6.38
2023-01-01T15:30:44.891Z,6.22
2023-01-01T15:33:16.088Z,6.53
2023-01-01T15:35:46.589Z,7.32
2023-01-01T15:38:27.634Z,6.28
2023-01-01T15:40:54.153Z,6.53
2023-01-01T15:43:20.554Z,6.30
2023-01-01T15:45:53.204Z,6.15
2023-01-01T15:48:22.125Z,6.63
2023-01-01T15:50:48.530Z,6.78
2023-01-01T15:53:25.780Z,6.13
2023-01-01T15:55:57.312Z,6.47
2023-01-01T15:58:28.821Z,5.95
2023-01-01T16:00:57.163Z,5.45
2023-01-01T16:03:25.304Z,6.00
2023-01-01T16:05:53.079Z,5.68
2023-01-01T16:08:22.230Z,6.10
2023-01-01T16:10:49.222Z,5.45
2023-01-01T16:13:15.641Z,5.60
2023-01-01T16:15:51.033Z,5.80
2023-01-01T16:18:19.517Z,5.68
2023-01-01T16:20:46.355Z,5.63
2023-01-01T16:23:16.764Z,5.15
2023-01-01T16:25:43.240Z,5.75
2023-01-01T16:28:09.666Z,5.40
2023-01-01T16:30:36.312Z,6.20
2023-01-01T16:33:03.690Z,5.30
2023-01-01T16:35:30.045Z,5.15
2023-01-01T16:37:56.452Z,4.88
2023-01-01T16:40:22.867Z,4.75
2023-01-01T16:42:49.282Z,4.80
2023-01-01T16:45:21.719Z,5.15
2023-01-01T16:47:48.148Z,4.95
2023-01-01T16:50:14.671Z,4.90
2023-01-01T16:52:44.642Z,5.03
2023-01-01T16:55:11.735Z,6.38
2023-01-01T16:57:39.787Z,6.90
2023-01-01T17:00:06.755Z,6.80
2023-01-01T17:02:33.367Z,7.93
2023-01-01T17:04:59.874Z,7.60
2023-01-01T17:07:26.271Z,7.00
2023-01-01T17:09:52.708Z,6.97
2023-01-01T17:12:19.225Z,6.32
2023-01-01T17:14:47.136Z,6.07
2023-01-01T17:17:13.561Z,5.82
2023-01-01T17:19:40.034Z,6.20
2023-01-01T17:22:09.539Z,6.43
2023-01-01T17:24:35.915Z,5.90
2023-01-01T17:27:02.371Z,5.82
2023-01-01T17:29:28.785Z,5.90
2023-01-01T17:31:55.236Z,6.10
2023-01-01T17:34:22.100Z,6.28
2023-01-01T17:36:49.512Z,5.65
2023-01-01T17:39:16.239Z,6.13
2023-01-01T17:41:45.494Z,5.70
2023-01-01T17:44:12.007Z,5.80
2023-01-01T17:46:38.874Z,5.82
2023-01-01T17:49:05.417Z,6.28
2023-01-01T17:51:32.135Z,6.20
2023-01-01T17:56:49.759Z,5.20
2023-01-01T17:59:38.317Z,5.50
2023-01-01T18:02:06.063Z,5.55
2023-01-01T18:04:35.079Z,5.22
2023-01-01T18:07:05.890Z,5.78
2023-01-01T18:09:38.988Z,5.67
2023-01-01T18:12:05.838Z,5.28
2023-01-01T18:14:32.245Z,5.82
2023-01-01T18:16:58.694Z,4.90
2023-01-01T18:19:25.112Z,5.13
2023-01-01T18:21:51.505Z,5.88
2023-01-01T18:24:17.952Z,5.47
2023-01-01T18:26:44.345Z,5.22
2023-01-01T18:29:10.780Z,5.00
2023-01-01T18:31:37.343Z,5.20
2023-01-01T18:34:07.147Z,5.22
2023-01-01T18:36:34.168Z,5.10
2023-01-01T18:39:01.836Z,4.80
2023-01-01T18:41:46.179Z,4.80
2023-01-01T18:44:17.028Z,4.55
2023-01-01T18:46:43.528Z,4.85
2023-01-01T18:49:11.798Z,4.63
2023-01-01T18:51:38.372Z,5.13
2023-01-01T18:54:10.305Z,4.95
2023-01-01T18:56:36.771Z,4.50
2023-01-01T18:59:07.073Z,4.07
2023-01-01T19:01:33.714Z,4.63
2023-01-01T19:04:01.039Z,4.25
2023-01-01T19:06:31.497Z,4.60
2023-01-01T19:09:15.062Z,4.45
2023-01-01T19:11:41.543Z,4.63
2023-01-01T19:14:28.809Z,4.47
2023-01-01T19:16:56.418Z,4.85
2023-01-01T19:19:24.154Z,4.57
2023-01-01T19:22:07.848Z,4.85
2023-01-01T19:24:35.651Z,4.20
2023-01-01T19:27:05.160Z,4.32
2023-01-01T19:29:31.633Z,4.43
2023-01-01T19:31:58.553Z,4.97
2023-01-01T19:34:25.357Z,4.47
2023-01-01T19:36:52.242Z,4.53
2023-01-01T19:39:21.142Z,4.80
2023-01-01T19:41:48.325Z,4.80
2023-01-01T19:44:18.500Z,4.78
2023-01-01T19:46:47.959Z,4.45
2023-01-01T19:49:18.199Z,4.60
2023-01-01T19:51:46.977Z,4.38
2023-01-01T19:54:13.508Z,4.40
2023-01-01T19:56:39.898Z,4.60
2023-01-01T19:59:06.412Z,4.90
2023-01-01T20:01:32.963Z,4.47
2023-01-01T20:03:59.652Z,4.75
2023-01-01T20:06:26.916Z,4.57
2023-01-01T20:08:54.891Z,4.75
2023-01-01T20:11:21.339Z,4.30
2023-01-01T20:13:47.768Z,4.38
2023-01-01T20:16:14.338Z,4.40
2023-01-01T20:18:51.211Z,4.18
2023-01-01T20:21:36.473Z,4.30
2023-01-01T20:24:02.985Z,4.10
2023-01-01T20:26:29.348Z,4.57
2023-01-01T20:29:14.475Z,4.40
2023-01-01T20:31:41.884Z,4.05
2023-01-01T20:34:08.332Z,4.40
2023-01-01T20:36:53.331Z,4.15
2023-01-01T20:39:19.917Z,4.47
2023-01-01T20:41:46.346Z,3.95
2023-01-01T20:44:12.865Z,4.00
2023-01-01T20:46:39.338Z,4.03
2023-01-01T20:49:05.804Z,4.45
2023-01-01T20:51:32.336Z,4.40
2023-01-01T20:53:58.769Z,4.22
2023-01-01T20:56:25.195Z,4.28
2023-01-01T20:59:00.175Z,4.22
2023-01-01T21:01:31.586Z,3.95
2023-01-01T21:03:58.042Z,3.80
2023-01-01T21:06:24.988Z,3.63
2023-01-01T21:08:51.536Z,3.85
2023-01-01T21:11:17.973Z,4.00
2023-01-01T21:13:44.959Z,4.00
2023-01-01T21:16:18.585Z,4.10
2023-01-01T21:18:45.490Z,4.57
2023-01-01T21:21:21.282Z,4.18
2023-01-01T21:23:48.104Z,4.07
2023-01-01T21:26:21.197Z,4.32
2023-01-01T21:28:47.623Z,4.05
2023-01-01T21:31:15.105Z,4.45
2023-01-01T21:33:42.711Z,3.88
2023-01-01T21:36:19.289Z,4.25
2023-01-01T21:38:46.889Z,3.72
2023-01-01T21:41:33.904Z,3.97
2023-01-01T21:44:00.300Z,3.67
2023-01-01T21:46:33.488Z,3.90
2023-01-01T21:49:02.808Z,3.90
2023-01-01T21:51:42.284Z,3.60
2023-01-01T21:54:14.804Z,4.00
2023-01-01T21:56:42.383Z,3.80
2023-01-01T21:59:28.411Z,4.03
2023-01-01T22:01:58.076Z,3.70
2023-01-01T22:04:26.362Z,3.70
2023-01-01T22:06:52.833Z,3.80
2023-01-01T22:09:22.677Z,3.60
2023-01-01T22:11:49.653Z,3.50
2023-01-01T22:14:17.583Z,3.65
2023-01-01T22:16:45.160Z,3.40
2023-01-01T22:19:16.085Z,4.00
2023-01-01T22:22:09.766Z,3.40
2023-01-01T22:24:36.463Z,4.13
2023-01-01T22:27:14.871Z,3.40
2023-01-01T22:29:42.028Z,3.40
2023-01-01T22:32:18.906Z,3.45
2023-01-01T22:34:45.365Z,3.25
2023-01-01T22:37:19.409Z,3.67
2023-01-01T22:39:46.495Z,3.65
2023-01-01T22:42:14.771Z,3.60
2023-01-01T22:44:41.382Z,3.28
2023-01-01T22:47:16.165Z,3.67
2023-01-01T22:49:46.934Z,3.47
2023-01-01T22:52:13.409Z,3.63
2023-01-01T22:54:39.831Z,3.85
2023-01-01T22:57:06.222Z,3.17
2023-01-01T22:59:32.974Z,3.30
2023-01-01T23:02:00.559Z,3.22
2023-01-01T23:04:27.036Z,3.22
2023-01-01T23:06:53.542Z,3.50
2023-01-01T23:09:19.954Z,3.60
2023-01-01T23:11:46.430Z,3.50
2023-01-01T23:14:36.939Z,3.35
2023-01-01T23:17:05.168Z,3.10
2023-01-01T23:19:31.608Z,3.45
2023-01-01T23:21:59.172Z,3.25
2023-01-01T23:24:25.761Z,3.33
2023-01-01T23:26:52.793Z,3.00
2023-01-01T23:29:19.441Z,3.35
2023-01-01T23:31:46.567Z,3.13
2023-01-01T23:34:13.302Z,3.35
2023-01-01T23:36:40.686Z,3.15
2023-01-01T23:39:07.632Z,3.60
2023-01-01T23:41:34.009Z,3.55
2023-01-01T23:44:00.482Z,3.30
2023-01-01T23:46:27.046Z,3.30
2023-01-01T23:48:54.027Z,3.35
2023-01-01T23:51:20.536Z,3.15
2023-01-01T23:53:47.041Z,2.95
2023-01-01T23:56:13.550Z,3.22
2023-01-01T23:58:39.983Z,2.92
